Terminal Aerodrome Forecast
Issued by NWS Shreveport, LA

Home | Current Version | Previous Version | Text Only | Print | Product List | Glossary On
Versions: 1 2 3 4 5 6 7 8 9 10 11 12 13 14 15
741
FTUS44 KSHV 092340
TAFTXK
TAF
KTXK 092340Z 1000/1024 32012G18KT P6SM FEW250
     FM100200 31005KT P6SM SKC
     FM100900 VRB03KT P6SM SKC
     FM101600 20007KT P6SM SKC=

USA.gov is the U.S. government's official web portal to all federal, state and local government web resources and services.